sensor_id;sensor_type;location;lat;lon;timestamp;pressure;altitude;pressure_sealevel;temperature;humidity
59767;BME280;46248;58.364;25.582;2023-08-24T00:00:42;100629.03;;;13.84;100.00
59767;BME280;46248;58.364;25.582;2023-08-24T00:04:04;100631.75;;;13.83;100.00
59767;BME280;46248;58.364;25.582;2023-08-24T00:07:26;100628.47;;;13.79;100.00
59767;BME280;46248;58.364;25.582;2023-08-24T00:10:49;100623.13;;;13.81;100.00
59767;BME280;46248;58.364;25.582;2023-08-24T00:14:11;100620.38;;;13.82;100.00
59767;BME280;46248;58.364;25.582;2023-08-24T00:17:33;100628.38;;;13.81;100.00
59767;BME280;46248;58.364;25.582;2023-08-24T00:20:55;100627.63;;;13.79;100.00
59767;BME280;46248;58.364;25.582;2023-08-24T00:24:17;100620.78;;;13.76;100.00
59767;BME280;46248;58.364;25.582;2023-08-24T00:27:41;100624.34;;;13.75;100.00
59767;BME280;46248;58.364;25.582;2023-08-24T00:31:03;100627.00;;;13.75;100.00
59767;BME280;46248;58.364;25.582;2023-08-24T00:34:25;100635.84;;;13.74;100.00
59767;BME280;46248;58.364;25.582;2023-08-24T00:37:46;100629.69;;;13.73;100.00
59767;BME280;46248;58.364;25.582;2023-08-24T00:41:09;100627.06;;;13.73;100.00
59767;BME280;46248;58.364;25.582;2023-08-24T00:44:32;100619.94;;;13.75;100.00
59767;BME280;46248;58.364;25.582;2023-08-24T00:47:54;100614.66;;;13.75;100.00
59767;BME280;46248;58.364;25.582;2023-08-24T00:51:16;100618.25;;;13.74;100.00
59767;BME280;46248;58.364;25.582;2023-08-24T00:54:39;100605.47;;;13.68;100.00
59767;BME280;46248;58.364;25.582;2023-08-24T00:58:03;100609.78;;;13.69;100.00
59767;BME280;46248;58.364;25.582;2023-08-24T01:01:26;100618.72;;;13.67;100.00
59767;BME280;46248;58.364;25.582;2023-08-24T01:04:48;100618.91;;;13.64;100.00
59767;BME280;46248;58.364;25.582;2023-08-24T01:08:10;100622.69;;;13.60;100.00
59767;BME280;46248;58.364;25.582;2023-08-24T01:11:50;100623.81;;;13.56;100.00
59767;BME280;46248;58.364;25.582;2023-08-24T01:15:20;100622.41;;;13.50;100.00
59767;BME280;46248;58.364;25.582;2023-08-24T01:18:48;100618.75;;;13.52;100.00
59767;BME280;46248;58.364;25.582;2023-08-24T01:22:23;100614.41;;;13.51;100.00
59767;BME280;46248;58.364;25.582;2023-08-24T01:25:52;100616.19;;;13.51;100.00
59767;BME280;46248;58.364;25.582;2023-08-24T01:29:15;100604.91;;;13.49;100.00
59767;BME280;46248;58.364;25.582;2023-08-24T01:32:37;100614.59;;;13.48;100.00
59767;BME280;46248;58.364;25.582;2023-08-24T01:36:00;100584.00;;;13.33;100.00
59767;BME280;46248;58.364;25.582;2023-08-24T01:39:28;100605.09;;;13.46;100.00
59767;BME280;46248;58.364;25.582;2023-08-24T01:42:54;100609.63;;;13.44;100.00
59767;BME280;46248;58.364;25.582;2023-08-24T01:46:19;100612.47;;;13.41;100.00
59767;BME280;46248;58.364;25.582;2023-08-24T01:49:43;100610.03;;;13.38;100.00
59767;BME280;46248;58.364;25.582;2023-08-24T01:53:05;100611.88;;;13.36;100.00
59767;BME280;46248;58.364;25.582;2023-08-24T01:56:27;100614.53;;;13.36;100.00
59767;BME280;46248;58.364;25.582;2023-08-24T01:59:49;100609.25;;;13.36;100.00
59767;BME280;46248;58.364;25.582;2023-08-24T02:03:12;100606.63;;;13.36;100.00
59767;BME280;46248;58.364;25.582;2023-08-24T02:06:34;100595.34;;;13.34;100.00
59767;BME280;46248;58.364;25.582;2023-08-24T02:09:55;100573.44;;;13.19;100.00
59767;BME280;46248;58.364;25.582;2023-08-24T02:13:17;100599.50;;;13.38;100.00
59767;BME280;46248;58.364;25.582;2023-08-24T02:16:39;100602.84;;;13.40;100.00
59767;BME280;46248;58.364;25.582;2023-08-24T02:20:03;100596.69;;;13.41;100.00
59767;BME280;46248;58.364;25.582;2023-08-24T02:23:25;100603.63;;;13.42;100.00
59767;BME280;46248;58.364;25.582;2023-08-24T02:26:47;100604.38;;;13.44;100.00
59767;BME280;46248;58.364;25.582;2023-08-24T02:30:10;100604.38;;;13.44;100.00
59767;BME280;46248;58.364;25.582;2023-08-24T02:33:32;100598.25;;;13.43;100.00
59767;BME280;46248;58.364;25.582;2023-08-24T02:36:56;100599.97;;;13.44;100.00
59767;BME280;46248;58.364;25.582;2023-08-24T02:40:18;100597.41;;;13.43;100.00
59767;BME280;46248;58.364;25.582;2023-08-24T02:43:40;100594.88;;;13.41;100.00
59767;BME280;46248;58.364;25.582;2023-08-24T02:47:06;100594.88;;;13.41;100.00
59767;BME280;46248;58.364;25.582;2023-08-24T02:50:28;100592.34;;;13.40;100.00
59767;BME280;46248;58.364;25.582;2023-08-24T02:53:52;100599.31;;;13.41;100.00
59767;BME280;46248;58.364;25.582;2023-08-24T02:57:13;100605.41;;;13.41;100.00
59767;BME280;46248;58.364;25.582;2023-08-24T03:00:37;100600.16;;;13.41;100.00
59767;BME280;46248;58.364;25.582;2023-08-24T03:03:59;100600.16;;;13.41;100.00
59767;BME280;46248;58.364;25.582;2023-08-24T03:07:21;100602.84;;;13.40;100.00
59767;BME280;46248;58.364;25.582;2023-08-24T03:10:45;100606.44;;;13.39;100.00
59767;BME280;46248;58.364;25.582;2023-08-24T03:14:07;100612.53;;;13.39;100.00
59767;BME280;46248;58.364;25.582;2023-08-24T03:17:29;100606.44;;;13.39;100.00
59767;BME280;46248;58.364;25.582;2023-08-24T03:20:51;100597.53;;;13.41;100.00
59767;BME280;46248;58.364;25.582;2023-08-24T03:24:12;100598.34;;;13.42;100.00
59767;BME280;46248;58.364;25.582;2023-08-24T03:27:35;100594.41;;;13.49;100.00
59767;BME280;46248;58.364;25.582;2023-08-24T03:30:57;100596.75;;;13.54;100.00
59767;BME280;46248;58.364;25.582;2023-08-24T03:34:19;100594.78;;;13.57;100.00
59767;BME280;46248;58.364;25.582;2023-08-24T03:37:41;100589.72;;;13.54;100.00
59767;BME280;46248;58.364;25.582;2023-08-24T03:41:04;100536.84;;;13.30;100.00
59767;BME280;46248;58.364;25.582;2023-08-24T03:44:28;100585.34;;;13.67;100.00
59767;BME280;46248;58.364;25.582;2023-08-24T03:47:50;100585.91;;;13.72;100.00
59767;BME280;46248;58.364;25.582;2023-08-24T03:51:12;100594.44;;;13.76;100.00
59767;BME280;46248;58.364;25.582;2023-08-24T03:54:34;100586.38;;;13.79;100.00
59767;BME280;46248;58.364;25.582;2023-08-24T03:57:56;100585.88;;;13.87;100.00
59767;BME280;46248;58.364;25.582;2023-08-24T04:01:19;100584.75;;;13.91;100.00
59767;BME280;46248;58.364;25.582;2023-08-24T04:04:43;100583.44;;;13.98;100.00
59767;BME280;46248;58.364;25.582;2023-08-24T04:08:05;100586.38;;;14.06;100.00
59767;BME280;46248;58.364;25.582;2023-08-24T04:11:27;100578.00;;;14.14;100.00
59767;BME280;46248;58.364;25.582;2023-08-24T04:14:49;100581.91;;;14.21;100.00
59767;BME280;46248;58.364;25.582;2023-08-24T04:18:14;100569.50;;;14.23;100.00
59767;BME280;46248;58.364;25.582;2023-08-24T04:21:36;100569.44;;;14.37;100.00
59767;BME280;46248;58.364;25.582;2023-08-24T04:24:58;100581.50;;;14.54;100.00
59767;BME280;46248;58.364;25.582;2023-08-24T04:28:20;100580.88;;;14.63;100.00
59767;BME280;46248;58.364;25.582;2023-08-24T04:31:43;100586.28;;;14.75;100.00
59767;BME280;46248;58.364;25.582;2023-08-24T04:35:07;100585.25;;;14.77;100.00
59767;BME280;46248;58.364;25.582;2023-08-24T04:38:30;100583.78;;;14.86;100.00
59767;BME280;46248;58.364;25.582;2023-08-24T04:41:52;100577.13;;;14.93;100.00
59767;BME280;46248;58.364;25.582;2023-08-24T04:45:14;100575.97;;;14.97;100.00
59767;BME280;46248;58.364;25.582;2023-08-24T04:48:36;100584.41;;;15.02;100.00
59767;BME280;46248;58.364;25.582;2023-08-24T04:51:59;100580.50;;;15.08;100.00
59767;BME280;46248;58.364;25.582;2023-08-24T04:55:21;100577.44;;;15.14;100.00
59767;BME280;46248;58.364;25.582;2023-08-24T04:58:52;100576.91;;;15.22;100.00
59767;BME280;46248;58.364;25.582;2023-08-24T05:02:14;100578.28;;;15.27;100.00
59767;BME280;46248;58.364;25.582;2023-08-24T05:05:36;100569.72;;;15.24;100.00
59767;BME280;46248;58.364;25.582;2023-08-24T05:08:59;100579.53;;;15.34;100.00
59767;BME280;46248;58.364;25.582;2023-08-24T05:12:21;100573.63;;;15.44;100.00
59767;BME280;46248;58.364;25.582;2023-08-24T05:15:43;100572.97;;;15.53;100.00
59767;BME280;46248;58.364;25.582;2023-08-24T05:19:05;100573.59;;;15.56;100.00
59767;BME280;46248;58.364;25.582;2023-08-24T05:22:27;100561.75;;;15.62;100.00
59767;BME280;46248;58.364;25.582;2023-08-24T05:25:50;100573.47;;;15.71;100.00
59767;BME280;46248;58.364;25.582;2023-08-24T05:29:13;100567.19;;;15.85;100.00
59767;BME280;46248;58.364;25.582;2023-08-24T05:32:34;100569.56;;;16.00;100.00
59767;BME280;46248;58.364;25.582;2023-08-24T05:35:59;100569.38;;;16.15;100.00
59767;BME280;46248;58.364;25.582;2023-08-24T05:39:21;100559.84;;;16.25;100.00
59767;BME280;46248;58.364;25.582;2023-08-24T05:42:44;100557.03;;;16.51;100.00
59767;BME280;46248;58.364;25.582;2023-08-24T05:46:06;100569.38;;;16.74;100.00
59767;BME280;46248;58.364;25.582;2023-08-24T05:49:28;100562.66;;;16.81;100.00
59767;BME280;46248;58.364;25.582;2023-08-24T05:52:50;100559.06;;;16.82;100.00
59767;BME280;46248;58.364;25.582;2023-08-24T05:56:12;100555.84;;;16.90;100.00
59767;BME280;46248;58.364;25.582;2023-08-24T05:59:35;100547.78;;;16.91;100.00
59767;BME280;46248;58.364;25.582;2023-08-24T06:02:56;100555.84;;;17.01;100.00
59767;BME280;46248;58.364;25.582;2023-08-24T06:06:18;100558.13;;;17.06;100.00
59767;BME280;46248;58.364;25.582;2023-08-24T06:09:40;100562.72;;;17.04;100.00
59767;BME280;46248;58.364;25.582;2023-08-24T06:13:02;100563.41;;;17.06;100.00
59767;BME280;46248;58.364;25.582;2023-08-24T06:16:25;100577.63;;;17.05;100.00
59767;BME280;46248;58.364;25.582;2023-08-24T06:19:47;100572.09;;;17.08;100.00
59767;BME280;46248;58.364;25.582;2023-08-24T06:23:09;100570.41;;;17.18;100.00
59767;BME280;46248;58.364;25.582;2023-08-24T06:26:31;100570.41;;;17.29;100.00
59767;BME280;46248;58.364;25.582;2023-08-24T06:29:53;100568.94;;;17.48;100.00
59767;BME280;46248;58.364;25.582;2023-08-24T06:33:18;100568.78;;;17.72;100.00
59767;BME280;46248;58.364;25.582;2023-08-24T06:36:40;100556.91;;;17.77;100.00
59767;BME280;46248;58.364;25.582;2023-08-24T06:40:02;100569.41;;;17.87;100.00
59767;BME280;46248;58.364;25.582;2023-08-24T06:43:26;100561.72;;;17.83;100.00
59767;BME280;46248;58.364;25.582;2023-08-24T06:46:48;100565.28;;;17.94;100.00
59767;BME280;46248;58.364;25.582;2023-08-24T06:50:11;100565.72;;;18.10;100.00
59767;BME280;46248;58.364;25.582;2023-08-24T06:53:33;100562.31;;;18.19;100.00
59767;BME280;46248;58.364;25.582;2023-08-24T06:56:55;100561.94;;;18.24;100.00
59767;BME280;46248;58.364;25.582;2023-08-24T07:00:18;100563.63;;;18.25;100.00
59767;BME280;46248;58.364;25.582;2023-08-24T07:03:44;100563.97;;;18.31;100.00
59767;BME280;46248;58.364;25.582;2023-08-24T07:07:07;100556.78;;;18.43;100.00
59767;BME280;46248;58.364;25.582;2023-08-24T07:10:29;100555.03;;;18.53;100.00
59767;BME280;46248;58.364;25.582;2023-08-24T07:13:51;100564.34;;;18.69;100.00
59767;BME280;46248;58.364;25.582;2023-08-24T07:17:14;100563.19;;;18.73;100.00
59767;BME280;46248;58.364;25.582;2023-08-24T07:20:37;100564.31;;;18.80;100.00
59767;BME280;46248;58.364;25.582;2023-08-24T07:24:00;100559.78;;;18.92;100.00
59767;BME280;46248;58.364;25.582;2023-08-24T07:27:22;100557.38;;;19.10;100.00
59767;BME280;46248;58.364;25.582;2023-08-24T07:30:43;100556.34;;;19.32;100.00
59767;BME280;46248;58.364;25.582;2023-08-24T07:34:05;100561.81;;;19.40;100.00
59767;BME280;46248;58.364;25.582;2023-08-24T07:37:27;100569.25;;;19.46;100.00
59767;BME280;46248;58.364;25.582;2023-08-24T07:40:50;100555.72;;;19.59;100.00
59767;BME280;46248;58.364;25.582;2023-08-24T07:44:12;100555.13;;;19.96;100.00
59767;BME280;46248;58.364;25.582;2023-08-24T07:47:34;100559.91;;;20.31;100.00
59767;BME280;46248;58.364;25.582;2023-08-24T07:50:56;100570.81;;;20.38;100.00
59767;BME280;46248;58.364;25.582;2023-08-24T07:54:18;100568.72;;;20.22;100.00
59767;BME280;46248;58.364;25.582;2023-08-24T07:57:42;100572.78;;;20.06;100.00
59767;BME280;46248;58.364;25.582;2023-08-24T08:01:04;100574.44;;;19.88;100.00
59767;BME280;46248;58.364;25.582;2023-08-24T08:04:26;100575.31;;;19.58;100.00
59767;BME280;46248;58.364;25.582;2023-08-24T08:07:48;100583.44;;;19.35;100.00
59767;BME280;46248;58.364;25.582;2023-08-24T08:11:10;100566.63;;;19.15;100.00
59767;BME280;46248;58.364;25.582;2023-08-24T08:14:33;100574.50;;;19.06;100.00
59767;BME280;46248;58.364;25.582;2023-08-24T08:17:55;100569.34;;;19.04;100.00
59767;BME280;46248;58.364;25.582;2023-08-24T08:21:17;100572.94;;;19.03;100.00
59767;BME280;46248;58.364;25.582;2023-08-24T08:24:42;100574.78;;;19.03;100.00
59767;BME280;46248;58.364;25.582;2023-08-24T08:28:04;100572.38;;;18.99;100.00
59767;BME280;46248;58.364;25.582;2023-08-24T08:31:27;100571.34;;;18.91;100.00
59767;BME280;46248;58.364;25.582;2023-08-24T08:34:49;100562.81;;;18.87;100.00
59767;BME280;46248;58.364;25.582;2023-08-24T08:38:10;100559.78;;;18.92;100.00
59767;BME280;46248;58.364;25.582;2023-08-24T08:41:42;100557.19;;;19.02;100.00
59767;BME280;46248;58.364;25.582;2023-08-24T08:45:08;100545.91;;;19.09;100.00
59767;BME280;46248;58.364;25.582;2023-08-24T08:48:32;100539.09;;;19.16;100.00
59767;BME280;46248;58.364;25.582;2023-08-24T08:51:55;100552.53;;;19.25;100.00
59767;BME280;46248;58.364;25.582;2023-08-24T08:55:18;100552.28;;;19.28;100.00
59767;BME280;46248;58.364;25.582;2023-08-24T08:58:40;100557.31;;;19.31;100.00
59767;BME280;46248;58.364;25.582;2023-08-24T09:02:03;100550.59;;;19.36;100.00
59767;BME280;46248;58.364;25.582;2023-08-24T09:05:27;100559.22;;;19.59;100.00
59767;BME280;46248;58.364;25.582;2023-08-24T09:08:49;100554.41;;;19.94;100.00
59767;BME280;46248;58.364;25.582;2023-08-24T09:12:11;100556.81;;;20.35;100.00
59767;BME280;46248;58.364;25.582;2023-08-24T09:15:35;100558.31;;;20.77;100.00
59767;BME280;46248;58.364;25.582;2023-08-24T09:18:56;100544.19;;;21.14;100.00
59767;BME280;46248;58.364;25.582;2023-08-24T09:22:20;100545.69;;;21.26;100.00
59767;BME280;46248;58.364;25.582;2023-08-24T09:25:45;100547.94;;;21.21;100.00
59767;BME280;46248;58.364;25.582;2023-08-24T09:29:12;100542.38;;;21.14;100.00
59767;BME280;46248;58.364;25.582;2023-08-24T09:32:35;100537.00;;;21.24;100.00
59767;BME280;46248;58.364;25.582;2023-08-24T09:35:57;100530.84;;;21.23;99.90
59767;BME280;46248;58.364;25.582;2023-08-24T09:39:23;100541.34;;;21.25;98.86
59767;BME280;46248;58.364;25.582;2023-08-24T09:42:44;100541.31;;;21.35;99.03
59767;BME280;46248;58.364;25.582;2023-08-24T09:46:06;100541.47;;;21.33;97.95
59767;BME280;46248;58.364;25.582;2023-08-24T09:49:28;100540.41;;;21.16;97.93
59767;BME280;46248;58.364;25.582;2023-08-24T09:52:52;100536.59;;;20.91;99.28
59767;BME280;46248;58.364;25.582;2023-08-24T09:56:16;100549.22;;;20.50;95.94
59767;BME280;46248;58.364;25.582;2023-08-24T09:59:39;100561.00;;;19.99;92.71
59767;BME280;46248;58.364;25.582;2023-08-24T10:03:05;100559.53;;;19.66;99.33
59767;BME280;46248;58.364;25.582;2023-08-24T10:06:28;100565.34;;;19.50;99.16
59767;BME280;46248;58.364;25.582;2023-08-24T10:09:55;100558.63;;;19.46;100.00
59767;BME280;46248;58.364;25.582;2023-08-24T10:13:22;100568.97;;;19.49;99.70
59767;BME280;46248;58.364;25.582;2023-08-24T10:16:46;100563.75;;;19.38;100.00
59767;BME280;46248;58.364;25.582;2023-08-24T10:20:10;100547.34;;;19.23;100.00
59767;BME280;46248;58.364;25.582;2023-08-24T10:23:32;100547.16;;;19.15;100.00
59767;BME280;46248;58.364;25.582;2023-08-24T10:26:56;100539.34;;;19.13;100.00
59767;BME280;46248;58.364;25.582;2023-08-24T10:30:21;100530.97;;;19.18;100.00
59767;BME280;46248;58.364;25.582;2023-08-24T10:33:45;100523.16;;;19.16;100.00
59767;BME280;46248;58.364;25.582;2023-08-24T10:37:08;100524.97;;;19.16;100.00
59767;BME280;46248;58.364;25.582;2023-08-24T10:40:31;100522.34;;;19.26;100.00
59767;BME280;46248;58.364;25.582;2023-08-24T10:44:05;100522.13;;;19.38;100.00
59767;BME280;46248;58.364;25.582;2023-08-24T10:47:43;100523.09;;;19.37;100.00
59767;BME280;46248;58.364;25.582;2023-08-24T10:51:16;100529.44;;;19.56;100.00
59767;BME280;46248;58.364;25.582;2023-08-24T10:54:42;100528.94;;;19.72;100.00
59767;BME280;46248;58.364;25.582;2023-08-24T10:58:05;100513.16;;;19.80;100.00
59767;BME280;46248;58.364;25.582;2023-08-24T11:01:32;100528.25;;;19.99;100.00
59767;BME280;46248;58.364;25.582;2023-08-24T11:05:05;100529.13;;;20.19;100.00
59767;BME280;46248;58.364;25.582;2023-08-24T11:08:45;100533.72;;;20.55;100.00
59767;BME280;46248;58.364;25.582;2023-08-24T11:12:07;100530.06;;;20.66;100.00
59767;BME280;46248;58.364;25.582;2023-08-24T11:15:29;100517.75;;;20.55;100.00
59767;BME280;46248;58.364;25.582;2023-08-24T11:18:52;100535.53;;;20.65;100.00
59767;BME280;46248;58.364;25.582;2023-08-24T11:22:16;100531.03;;;20.65;100.00
59767;BME280;46248;58.364;25.582;2023-08-24T11:25:38;100523.56;;;20.78;100.00
59767;BME280;46248;58.364;25.582;2023-08-24T11:29:04;100526.44;;;21.04;100.00
59767;BME280;46248;58.364;25.582;2023-08-24T11:32:26;100533.38;;;21.25;100.00
59767;BME280;46248;58.364;25.582;2023-08-24T11:35:49;100521.97;;;21.33;100.00
59767;BME280;46248;58.364;25.582;2023-08-24T11:39:19;100521.00;;;21.34;99.11
59767;BME280;46248;58.364;25.582;2023-08-24T11:42:41;100513.84;;;21.34;100.00
59767;BME280;46248;58.364;25.582;2023-08-24T11:46:03;100509.03;;;21.47;97.44
59767;BME280;46248;58.364;25.582;2023-08-24T11:49:25;100518.09;;;21.55;97.45
59767;BME280;46248;58.364;25.582;2023-08-24T11:52:47;100517.50;;;21.61;94.47
59767;BME280;46248;58.364;25.582;2023-08-24T11:56:12;100505.91;;;21.52;93.13
59767;BME280;46248;58.364;25.582;2023-08-24T11:59:34;100509.63;;;21.41;92.07
59767;BME280;46248;58.364;25.582;2023-08-24T12:02:57;100494.94;;;21.37;92.53
59767;BME280;46248;58.364;25.582;2023-08-24T12:06:19;100510.84;;;21.47;93.67
59767;BME280;46248;58.364;25.582;2023-08-24T12:09:42;100504.53;;;21.48;90.71
59767;BME280;46248;58.364;25.582;2023-08-24T12:13:06;100498.53;;;21.46;88.95
59767;BME280;46248;58.364;25.582;2023-08-24T12:16:32;100496.75;;;21.37;89.80
59767;BME280;46248;58.364;25.582;2023-08-24T12:19:59;100493.78;;;21.30;91.48
59767;BME280;46248;58.364;25.582;2023-08-24T12:23:27;100489.94;;;21.24;91.27
59767;BME280;46248;58.364;25.582;2023-08-24T12:26:55;100483.91;;;21.22;91.36
59767;BME280;46248;58.364;25.582;2023-08-24T12:30:20;100489.66;;;21.18;92.40
59767;BME280;46248;58.364;25.582;2023-08-24T12:33:42;100471.47;;;21.13;92.65
59767;BME280;46248;58.364;25.582;2023-08-24T12:37:05;100484.44;;;21.26;91.97
59767;BME280;46248;58.364;25.582;2023-08-24T12:40:26;100488.09;;;21.25;91.08
59767;BME280;46248;58.364;25.582;2023-08-24T12:43:50;100485.31;;;21.17;89.95
59767;BME280;46248;58.364;25.582;2023-08-24T12:47:13;100493.03;;;21.20;91.48
59767;BME280;46248;58.364;25.582;2023-08-24T12:50:35;100488.03;;;21.35;90.33
59767;BME280;46248;58.364;25.582;2023-08-24T12:53:58;100490.84;;;21.43;90.56
59767;BME280;46248;58.364;25.582;2023-08-24T12:57:19;100482.59;;;21.54;89.93
59767;BME280;46248;58.364;25.582;2023-08-24T13:00:41;100489.25;;;21.50;90.46
59767;BME280;46248;58.364;25.582;2023-08-24T13:04:05;100485.13;;;21.56;90.29
59767;BME280;46248;58.364;25.582;2023-08-24T13:07:27;100475.19;;;21.58;91.35
59767;BME280;46248;58.364;25.582;2023-08-24T13:10:49;100471.91;;;21.82;89.88
59767;BME280;46248;58.364;25.582;2023-08-24T13:14:11;100463.34;;;22.14;89.02
59767;BME280;46248;58.364;25.582;2023-08-24T13:17:33;100468.38;;;22.35;88.58
59767;BME280;46248;58.364;25.582;2023-08-24T13:20:56;100473.59;;;22.45;88.04
59767;BME280;46248;58.364;25.582;2023-08-24T13:24:18;100472.13;;;22.50;87.66
59767;BME280;46248;58.364;25.582;2023-08-24T13:27:40;100470.09;;;22.44;87.14
59767;BME280;46248;58.364;25.582;2023-08-24T13:31:02;100467.72;;;22.41;87.48
59767;BME280;46248;58.364;25.582;2023-08-24T13:34:24;100466.78;;;22.50;86.61
59767;BME280;46248;58.364;25.582;2023-08-24T13:37:48;100468.38;;;22.61;83.70
59767;BME280;46248;58.364;25.582;2023-08-24T13:41:11;100458.84;;;22.58;85.18
59767;BME280;46248;58.364;25.582;2023-08-24T13:44:33;100459.75;;;22.67;85.20
59767;BME280;46248;58.364;25.582;2023-08-24T13:47:55;100456.63;;;22.80;83.88
59767;BME280;46248;58.364;25.582;2023-08-24T13:51:17;100454.66;;;22.90;81.91
59767;BME280;46248;58.364;25.582;2023-08-24T13:54:40;100453.06;;;22.97;80.27
59767;BME280;46248;58.364;25.582;2023-08-24T13:58:03;100447.88;;;22.96;79.22
59767;BME280;46248;58.364;25.582;2023-08-24T14:01:25;100445.16;;;22.88;77.60
59767;BME280;46248;58.364;25.582;2023-08-24T14:04:47;100457.63;;;22.79;78.99
59767;BME280;46248;58.364;25.582;2023-08-24T14:08:09;100451.09;;;22.73;78.55
59767;BME280;46248;58.364;25.582;2023-08-24T14:11:33;100440.09;;;22.76;78.26
59767;BME280;46248;58.364;25.582;2023-08-24T14:14:55;100437.56;;;22.67;78.99
59767;BME280;46248;58.364;25.582;2023-08-24T14:18:18;100446.06;;;22.70;79.50
59767;BME280;46248;58.364;25.582;2023-08-24T14:21:40;100421.88;;;22.37;81.18
59767;BME280;46248;58.364;25.582;2023-08-24T14:25:05;100444.94;;;22.47;80.14
59767;BME280;46248;58.364;25.582;2023-08-24T14:28:48;100439.59;;;22.47;78.90
59767;BME280;46248;58.364;25.582;2023-08-24T14:32:10;100444.25;;;22.45;79.98
59767;BME280;46248;58.364;25.582;2023-08-24T14:35:32;100449.81;;;22.51;81.03
59767;BME280;46248;58.364;25.582;2023-08-24T14:38:55;100457.31;;;22.56;80.34
59767;BME280;46248;58.364;25.582;2023-08-24T14:42:16;100462.16;;;22.52;81.53
59767;BME280;46248;58.364;25.582;2023-08-24T14:45:39;100455.47;;;22.48;80.73
59767;BME280;46248;58.364;25.582;2023-08-24T14:49:02;100438.69;;;22.38;80.79
59767;BME280;46248;58.364;25.582;2023-08-24T14:52:24;100461.16;;;22.53;81.26
59767;BME280;46248;58.364;25.582;2023-08-24T14:55:46;100461.88;;;22.63;80.96
59767;BME280;46248;58.364;25.582;2023-08-24T14:59:08;100443.78;;;22.49;80.95
59767;BME280;46248;58.364;25.582;2023-08-24T15:02:32;100461.03;;;22.63;80.86
59767;BME280;46248;58.364;25.582;2023-08-24T15:05:58;100454.03;;;22.62;81.25
59767;BME280;46248;58.364;25.582;2023-08-24T15:09:20;100459.38;;;22.62;81.48
59767;BME280;46248;58.364;25.582;2023-08-24T15:12:41;100462.53;;;22.57;81.23
59767;BME280;46248;58.364;25.582;2023-08-24T15:16:04;100459.41;;;22.44;81.66
59767;BME280;46248;58.364;25.582;2023-08-24T15:19:27;100458.19;;;22.30;82.69
59767;BME280;46248;58.364;25.582;2023-08-24T15:22:49;100465.34;;;22.12;83.55
59767;BME280;46248;58.364;25.582;2023-08-24T15:26:11;100458.03;;;21.96;83.99
59767;BME280;46248;58.364;25.582;2023-08-24T15:29:33;100459.88;;;21.78;83.88
59767;BME280;46248;58.364;25.582;2023-08-24T15:32:55;100461.16;;;21.56;84.35
59767;BME280;46248;58.364;25.582;2023-08-24T15:36:19;100472.03;;;21.44;86.31
59767;BME280;46248;58.364;25.582;2023-08-24T15:39:40;100475.16;;;21.40;88.08
59767;BME280;46248;58.364;25.582;2023-08-24T15:43:04;100471.28;;;21.24;89.00
59767;BME280;46248;58.364;25.582;2023-08-24T15:46:27;100474.13;;;21.13;90.16
59767;BME280;46248;58.364;25.582;2023-08-24T15:49:49;100470.25;;;21.08;90.59
59767;BME280;46248;58.364;25.582;2023-08-24T15:53:13;100469.25;;;21.09;91.89
59767;BME280;46248;58.364;25.582;2023-08-24T15:56:34;100475.44;;;21.09;91.67
59767;BME280;46248;58.364;25.582;2023-08-24T15:59:56;100475.88;;;21.04;90.74
59767;BME280;46248;58.364;25.582;2023-08-24T16:03:18;100483.34;;;20.91;90.41
59767;BME280;46248;58.364;25.582;2023-08-24T16:06:41;100487.16;;;20.89;90.24
59767;BME280;46248;58.364;25.582;2023-08-24T16:10:04;100480.41;;;20.85;91.06
59767;BME280;46248;58.364;25.582;2023-08-24T16:13:28;100483.66;;;20.78;89.94
59767;BME280;46248;58.364;25.582;2023-08-24T16:16:50;100481.03;;;20.69;90.57
59767;BME280;46248;58.364;25.582;2023-08-24T16:20:15;100488.75;;;20.62;90.28
59767;BME280;46248;58.364;25.582;2023-08-24T16:23:37;100482.91;;;20.58;90.91
59767;BME280;46248;58.364;25.582;2023-08-24T16:27:00;100480.06;;;20.60;91.04
59767;BME280;46248;58.364;25.582;2023-08-24T16:30:22;100487.97;;;20.52;90.58
59767;BME280;46248;58.364;25.582;2023-08-24T16:33:44;100472.28;;;20.29;90.89
59767;BME280;46248;58.364;25.582;2023-08-24T16:37:06;100483.34;;;20.25;90.55
59767;BME280;46248;58.364;25.582;2023-08-24T16:40:28;100487.00;;;20.14;90.93
59767;BME280;46248;58.364;25.582;2023-08-24T16:43:51;100486.72;;;20.07;92.04
59767;BME280;46248;58.364;25.582;2023-08-24T16:47:13;100494.25;;;20.02;91.92
59767;BME280;46248;58.364;25.582;2023-08-24T16:50:35;100495.94;;;19.94;91.66
59767;BME280;46248;58.364;25.582;2023-08-24T16:53:59;100499.88;;;19.80;91.71
59767;BME280;46248;58.364;25.582;2023-08-24T16:57:22;100505.44;;;19.67;92.42
59767;BME280;46248;58.364;25.582;2023-08-24T17:00:45;100498.41;;;19.56;93.01
59767;BME280;46248;58.364;25.582;2023-08-24T17:04:07;100495.72;;;19.47;92.98
59767;BME280;46248;58.364;25.582;2023-08-24T17:07:29;100487.59;;;19.38;93.46
59767;BME280;46248;58.364;25.582;2023-08-24T17:11:17;100488.69;;;19.26;93.53
59767;BME280;46248;58.364;25.582;2023-08-24T17:19:07;100489.97;;;18.91;94.56
59767;BME280;46248;58.364;25.582;2023-08-24T17:23:28;100494.78;;;18.76;95.76